sensor_id;sensor_type;location;lat;lon;timestamp;pressure;altitude;pressure_sealevel;temperature;humidity
73628;BME280;61923;51.846;5.856;2022-12-24T00:01:59;100483.88;;;15.26;74.38
73628;BME280;61923;51.846;5.856;2022-12-24T00:04:25;100483.88;;;15.26;74.41
73628;BME280;61923;51.846;5.856;2022-12-24T00:06:50;100490.25;;;15.23;74.28
73628;BME280;61923;51.846;5.856;2022-12-24T00:09:15;100492.69;;;15.25;74.39
73628;BME280;61923;51.846;5.856;2022-12-24T00:11:40;100493.50;;;15.25;74.43
73628;BME280;61923;51.846;5.856;2022-12-24T00:14:06;100490.25;;;15.23;74.52
73628;BME280;61923;51.846;5.856;2022-12-24T00:16:31;100488.28;;;15.25;74.52
73628;BME280;61923;51.846;5.856;2022-12-24T00:18:56;100522.28;;;15.25;74.48
73628;BME280;61923;51.846;5.856;2022-12-24T00:21:21;100521.97;;;15.28;74.58
73628;BME280;61923;51.846;5.856;2022-12-24T00:23:46;100503.66;;;15.28;74.48
73628;BME280;61923;51.846;5.856;2022-12-24T00:26:12;100504.47;;;15.29;74.58
73628;BME280;61923;51.846;5.856;2022-12-24T00:28:38;100507.88;;;15.29;74.70
73628;BME280;61923;51.846;5.856;2022-12-24T00:31:10;100506.28;;;15.28;74.64
73628;BME280;61923;51.846;5.856;2022-12-24T00:33:36;100525.38;;;15.29;74.40
73628;BME280;61923;51.846;5.856;2022-12-24T00:36:01;100523.78;;;15.28;74.57
73628;BME280;61923;51.846;5.856;2022-12-24T00:38:27;100528.81;;;15.29;74.56
73628;BME280;61923;51.846;5.856;2022-12-24T00:40:57;100525.38;;;15.29;74.66
73628;BME280;61923;51.846;5.856;2022-12-24T00:43:22;100538.63;;;15.27;74.75
73628;BME280;61923;51.846;5.856;2022-12-24T00:45:47;100531.44;;;15.29;74.65
73628;BME280;61923;51.846;5.856;2022-12-24T00:48:12;100540.94;;;15.30;74.75
73628;BME280;61923;51.846;5.856;2022-12-24T00:50:38;100541.91;;;15.29;74.70
73628;BME280;61923;51.846;5.856;2022-12-24T00:53:03;100544.69;;;15.28;74.75
73628;BME280;61923;51.846;5.856;2022-12-24T00:55:28;100536.66;;;15.29;75.03
73628;BME280;61923;51.846;5.856;2022-12-24T00:57:53;100554.66;;;15.32;74.61
73628;BME280;61923;51.846;5.856;2022-12-24T01:00:19;100553.84;;;15.32;74.81
73628;BME280;61923;51.846;5.856;2022-12-24T01:02:44;100558.09;;;15.33;74.66
73628;BME280;61923;51.846;5.856;2022-12-24T01:05:10;100570.38;;;15.32;74.67
73628;BME280;61923;51.846;5.856;2022-12-24T01:07:36;100564.47;;;15.30;74.83
73628;BME280;61923;51.846;5.856;2022-12-24T01:10:02;100569.72;;;15.30;74.74
73628;BME280;61923;51.846;5.856;2022-12-24T01:12:27;100571.00;;;15.34;74.71
73628;BME280;61923;51.846;5.856;2022-12-24T01:14:53;100581.78;;;15.31;74.74
73628;BME280;61923;51.846;5.856;2022-12-24T01:17:18;100499.41;;;14.78;74.63
73628;BME280;61923;51.846;5.856;2022-12-24T01:19:43;100592.25;;;15.31;74.70
73628;BME280;61923;51.846;5.856;2022-12-24T01:22:08;100596.03;;;15.29;74.70
73628;BME280;61923;51.846;5.856;2022-12-24T01:24:34;100595.06;;;15.30;75.09
73628;BME280;61923;51.846;5.856;2022-12-24T01:26:59;100591.59;;;15.29;74.82
73628;BME280;61923;51.846;5.856;2022-12-24T01:29:24;100602.06;;;15.29;74.94
73628;BME280;61923;51.846;5.856;2022-12-24T01:31:50;100602.06;;;15.29;74.76
73628;BME280;61923;51.846;5.856;2022-12-24T01:34:15;100608.13;;;15.30;74.46
73628;BME280;61923;51.846;5.856;2022-12-24T01:36:40;100605.53;;;15.30;74.67
73628;BME280;61923;51.846;5.856;2022-12-24T01:39:05;100602.91;;;15.30;74.96
73628;BME280;61923;51.846;5.856;2022-12-24T01:41:31;100608.13;;;15.30;74.76
73628;BME280;61923;51.846;5.856;2022-12-24T01:44:19;100607.31;;;15.29;74.95
73628;BME280;61923;51.846;5.856;2022-12-24T01:46:44;100604.38;;;15.32;75.01
73628;BME280;61923;51.846;5.856;2022-12-24T01:49:10;100616.00;;;15.30;74.95
73628;BME280;61923;51.846;5.856;2022-12-24T01:51:41;100620.06;;;15.32;74.75
73628;BME280;61923;51.846;5.856;2022-12-24T01:54:20;100624.66;;;15.30;74.89
73628;BME280;61923;51.846;5.856;2022-12-24T01:56:49;100629.22;;;15.28;75.02
73628;BME280;61923;51.846;5.856;2022-12-24T01:59:16;100637.88;;;15.29;75.04
73628;BME280;61923;51.846;5.856;2022-12-24T02:01:43;100642.16;;;15.30;75.05
73628;BME280;61923;51.846;5.856;2022-12-24T02:06:41;100636.09;;;15.29;75.08
73628;BME280;61923;51.846;5.856;2022-12-24T02:09:06;100648.34;;;15.29;75.01
73628;BME280;61923;51.846;5.856;2022-12-24T02:11:32;100652.13;;;15.26;75.01
73628;BME280;61923;51.846;5.856;2022-12-24T02:13:59;100650.47;;;15.25;75.03
73628;BME280;61923;51.846;5.856;2022-12-24T02:21:30;100667.47;;;15.29;74.85
73628;BME280;61923;51.846;5.856;2022-12-24T02:34:30;100685.13;;;15.27;75.13
73628;BME280;61923;51.846;5.856;2022-12-24T02:36:58;100691.34;;;15.26;74.94
73628;BME280;61923;51.846;5.856;2022-12-24T02:39:33;100690.22;;;15.29;74.94
73628;BME280;61923;51.846;5.856;2022-12-24T02:42:01;100692.31;;;15.25;74.85
73628;BME280;61923;51.846;5.856;2022-12-24T02:44:38;100685.63;;;15.23;75.19
73628;BME280;61923;51.846;5.856;2022-12-24T02:47:05;100686.78;;;15.20;74.90
73628;BME280;61923;51.846;5.856;2022-12-24T02:49:31;100690.19;;;15.21;74.86
73628;BME280;61923;51.846;5.856;2022-12-24T02:51:56;100688.56;;;15.20;74.90
73628;BME280;61923;51.846;5.856;2022-12-24T02:54:22;100680.53;;;15.21;74.73
73628;BME280;61923;51.846;5.856;2022-12-24T02:57:10;100684.81;;;15.22;74.83
73628;BME280;61923;51.846;5.856;2022-12-24T03:04:49;100690.34;;;15.19;74.93
73628;BME280;61923;51.846;5.856;2022-12-24T03:12:37;100694.63;;;15.20;74.67
73628;BME280;61923;51.846;5.856;2022-12-24T03:15:04;100698.19;;;15.19;74.81
73628;BME280;61923;51.846;5.856;2022-12-24T03:17:30;100694.63;;;15.20;74.54
73628;BME280;61923;51.846;5.856;2022-12-24T03:19:58;100691.00;;;15.21;74.69
73628;BME280;61923;51.846;5.856;2022-12-24T03:22:24;100697.22;;;15.20;74.49
73628;BME280;61923;51.846;5.856;2022-12-24T03:24:50;100699.84;;;15.20;74.83
73628;BME280;61923;51.846;5.856;2022-12-24T03:27:15;100695.94;;;15.24;74.71
73628;BME280;61923;51.846;5.856;2022-12-24T03:29:41;100703.13;;;15.22;74.76
73628;BME280;61923;51.846;5.856;2022-12-24T03:32:06;100705.25;;;15.27;75.15
73628;BME280;61923;51.846;5.856;2022-12-24T03:34:32;100703.44;;;15.27;74.62
73628;BME280;61923;51.846;5.856;2022-12-24T03:36:57;100706.91;;;15.28;74.89
73628;BME280;61923;51.846;5.856;2022-12-24T03:39:22;100705.91;;;15.29;74.83
73628;BME280;61923;51.846;5.856;2022-12-24T03:41:47;100699.03;;;15.20;74.70
73628;BME280;61923;51.846;5.856;2022-12-24T03:44:13;100707.56;;;15.30;74.74
73628;BME280;61923;51.846;5.856;2022-12-24T03:46:38;100704.09;;;15.29;74.84
73628;BME280;61923;51.846;5.856;2022-12-24T03:49:04;100708.53;;;15.29;74.89
73628;BME280;61923;51.846;5.856;2022-12-24T03:51:29;100717.84;;;15.31;74.90
73628;BME280;61923;51.846;5.856;2022-12-24T03:53:55;100714.09;;;15.34;74.98
73628;BME280;61923;51.846;5.856;2022-12-24T03:56:20;100712.31;;;15.34;74.85
73628;BME280;61923;51.846;5.856;2022-12-24T03:58:46;100713.91;;;15.36;74.86
73628;BME280;61923;51.846;5.856;2022-12-24T04:01:12;100716.22;;;15.30;74.81
73628;BME280;61923;51.846;5.856;2022-12-24T04:03:37;100716.72;;;15.34;75.00
73628;BME280;61923;51.846;5.856;2022-12-24T04:06:03;100722.91;;;15.33;75.03
73628;BME280;61923;51.846;5.856;2022-12-24T04:08:29;100731.91;;;15.30;75.08
73628;BME280;61923;51.846;5.856;2022-12-24T04:10:54;100731.25;;;15.28;75.07
73628;BME280;61923;51.846;5.856;2022-12-24T04:13:19;100732.22;;;15.27;75.04
73628;BME280;61923;51.846;5.856;2022-12-24T04:15:45;100730.59;;;15.26;75.07
73628;BME280;61923;51.846;5.856;2022-12-24T04:18:10;100728.00;;;15.26;74.85
73628;BME280;61923;51.846;5.856;2022-12-24T04:20:35;100718.47;;;15.25;75.22
73628;BME280;61923;51.846;5.856;2022-12-24T04:23:00;100729.44;;;15.29;74.90
73628;BME280;61923;51.846;5.856;2022-12-24T04:25:26;100725.03;;;15.29;75.15
73628;BME280;61923;51.846;5.856;2022-12-24T04:27:51;100732.88;;;15.29;75.13
73628;BME280;61923;51.846;5.856;2022-12-24T04:30:16;100732.88;;;15.29;75.38
73628;BME280;61923;51.846;5.856;2022-12-24T04:32:41;100743.19;;;15.31;74.97
73628;BME280;61923;51.846;5.856;2022-12-24T04:35:07;100737.97;;;15.31;74.80
73628;BME280;61923;51.846;5.856;2022-12-24T04:37:32;100742.53;;;15.29;75.29
73628;BME280;61923;51.846;5.856;2022-12-24T04:39:58;100740.06;;;15.27;74.98
73628;BME280;61923;51.846;5.856;2022-12-24T04:42:23;100737.16;;;15.30;74.85
73628;BME280;61923;51.846;5.856;2022-12-24T04:44:49;100738.28;;;15.28;75.13
73628;BME280;61923;51.846;5.856;2022-12-24T04:47:14;100750.53;;;15.27;75.20
73628;BME280;61923;51.846;5.856;2022-12-24T04:49:39;100744.34;;;15.28;75.03
73628;BME280;61923;51.846;5.856;2022-12-24T04:52:04;100744.50;;;15.27;75.24
73628;BME280;61923;51.846;5.856;2022-12-24T04:54:30;100741.72;;;15.28;75.00
73628;BME280;61923;51.846;5.856;2022-12-24T04:56:55;100755.78;;;15.27;75.01
73628;BME280;61923;51.846;5.856;2022-12-24T04:59:20;100754.97;;;15.27;75.29
73628;BME280;61923;51.846;5.856;2022-12-24T05:01:45;100757.56;;;15.27;75.14
73628;BME280;61923;51.846;5.856;2022-12-24T05:04:11;100755.47;;;15.30;75.13
73628;BME280;61923;51.846;5.856;2022-12-24T05:06:36;100765.94;;;15.30;75.26
73628;BME280;61923;51.846;5.856;2022-12-24T05:09:01;100760.69;;;15.30;75.00
73628;BME280;61923;51.846;5.856;2022-12-24T05:11:27;100774.59;;;15.31;75.33
73628;BME280;61923;51.846;5.856;2022-12-24T05:13:52;100766.91;;;15.29;75.55
73628;BME280;61923;51.846;5.856;2022-12-24T05:16:18;100762.31;;;15.31;75.49
73628;BME280;61923;51.846;5.856;2022-12-24T05:18:44;100756.44;;;15.29;75.39
73628;BME280;61923;51.846;5.856;2022-12-24T05:21:13;100754.66;;;15.30;75.71
73628;BME280;61923;51.846;5.856;2022-12-24T05:23:39;100751.56;;;15.34;75.65
73628;BME280;61923;51.846;5.856;2022-12-24T05:26:34;100755.31;;;15.32;75.63
73628;BME280;61923;51.846;5.856;2022-12-24T05:29:00;100751.03;;;15.31;75.46
73628;BME280;61923;51.846;5.856;2022-12-24T05:31:26;100763.31;;;15.30;75.48
73628;BME280;61923;51.846;5.856;2022-12-24T05:33:52;100769.34;;;15.31;75.41
73628;BME280;61923;51.846;5.856;2022-12-24T05:36:18;100762.31;;;15.31;75.39
73628;BME280;61923;51.846;5.856;2022-12-24T05:38:44;100759.69;;;15.31;75.48
73628;BME280;61923;51.846;5.856;2022-12-24T05:41:09;100774.28;;;15.34;75.61
73628;BME280;61923;51.846;5.856;2022-12-24T05:43:35;100774.75;;;15.38;75.51
73628;BME280;61923;51.846;5.856;2022-12-24T05:46:02;100769.88;;;15.43;75.09
73628;BME280;61923;51.846;5.856;2022-12-24T05:48:27;100768.56;;;15.39;75.30
73628;BME280;61923;51.846;5.856;2022-12-24T05:50:54;100770.38;;;15.38;75.50
73628;BME280;61923;51.846;5.856;2022-12-24T05:53:19;100761.88;;;15.36;75.39
73628;BME280;61923;51.846;5.856;2022-12-24T05:55:45;100775.09;;;15.34;75.39
73628;BME280;61923;51.846;5.856;2022-12-24T05:58:10;100768.88;;;15.36;75.31
73628;BME280;61923;51.846;5.856;2022-12-24T06:00:35;100777.88;;;15.33;75.92
73628;BME280;61923;51.846;5.856;2022-12-24T06:03:01;100780.34;;;15.34;75.40
73628;BME280;61923;51.846;5.856;2022-12-24T06:05:26;100790.94;;;15.33;75.48
73628;BME280;61923;51.846;5.856;2022-12-24T06:07:51;100792.41;;;15.36;75.31
73628;BME280;61923;51.846;5.856;2022-12-24T06:10:16;100790.94;;;15.33;75.25
73628;BME280;61923;51.846;5.856;2022-12-24T06:12:42;100795.03;;;15.36;75.33
73628;BME280;61923;51.846;5.856;2022-12-24T06:15:07;100780.47;;;15.25;75.28
73628;BME280;61923;51.846;5.856;2022-12-24T06:17:33;100794.88;;;15.37;75.06
73628;BME280;61923;51.846;5.856;2022-12-24T06:19:58;100801.91;;;15.37;75.04
73628;BME280;61923;51.846;5.856;2022-12-24T06:22:23;100808.13;;;15.36;75.21
73628;BME280;61923;51.846;5.856;2022-12-24T06:24:48;100811.56;;;15.36;75.38
73628;BME280;61923;51.846;5.856;2022-12-24T06:27:13;100815.97;;;15.36;75.16
73628;BME280;61923;51.846;5.856;2022-12-24T06:29:39;100830.34;;;15.31;75.49
73628;BME280;61923;51.846;5.856;2022-12-24T06:32:04;100819.88;;;15.31;75.63
73628;BME280;61923;51.846;5.856;2022-12-24T06:34:29;100827.91;;;15.30;75.44
73628;BME280;61923;51.846;5.856;2022-12-24T06:36:55;100830.34;;;15.31;75.50
73628;BME280;61923;51.846;5.856;2022-12-24T06:39:20;100835.44;;;15.33;75.54
73628;BME280;61923;51.846;5.856;2022-12-24T06:41:45;100842.47;;;15.32;75.41
73628;BME280;61923;51.846;5.856;2022-12-24T06:44:10;100847.69;;;15.32;75.12
73628;BME280;61923;51.846;5.856;2022-12-24T06:46:36;100846.41;;;15.37;75.13
73628;BME280;61923;51.846;5.856;2022-12-24T06:49:01;100841.16;;;15.37;75.07
73628;BME280;61923;51.846;5.856;2022-12-24T06:51:26;100841.66;;;15.32;75.14
73628;BME280;61923;51.846;5.856;2022-12-24T06:53:51;100839.84;;;15.32;75.03
73628;BME280;61923;51.846;5.856;2022-12-24T06:56:18;100844.09;;;15.33;75.15
73628;BME280;61923;51.846;5.856;2022-12-24T06:58:43;100843.44;;;15.31;75.40
73628;BME280;61923;51.846;5.856;2022-12-24T07:01:10;100847.56;;;15.34;75.12
73628;BME280;61923;51.846;5.856;2022-12-24T07:03:35;100850.81;;;15.36;75.16
73628;BME280;61923;51.846;5.856;2022-12-24T07:06:01;100844.94;;;15.34;75.23
73628;BME280;61923;51.846;5.856;2022-12-24T07:08:26;100850.31;;;15.32;75.76
73628;BME280;61923;51.846;5.856;2022-12-24T07:10:51;100850.97;;;15.34;75.39
73628;BME280;61923;51.846;5.856;2022-12-24T07:13:17;100855.41;;;15.34;75.35
73628;BME280;61923;51.846;5.856;2022-12-24T07:15:42;100868.47;;;15.34;75.43
73628;BME280;61923;51.846;5.856;2022-12-24T07:18:07;100857.84;;;15.36;75.28
73628;BME280;61923;51.846;5.856;2022-12-24T07:20:33;100870.91;;;15.36;75.27
73628;BME280;61923;51.846;5.856;2022-12-24T07:22:58;100871.56;;;15.38;75.51
73628;BME280;61923;51.846;5.856;2022-12-24T07:25:23;100876.50;;;15.41;75.52
73628;BME280;61923;51.846;5.856;2022-12-24T07:27:48;100878.66;;;15.45;75.47
73628;BME280;61923;51.846;5.856;2022-12-24T07:30:14;100884.88;;;15.44;75.21
73628;BME280;61923;51.846;5.856;2022-12-24T07:32:40;100880.47;;;15.45;75.30
73628;BME280;61923;51.846;5.856;2022-12-24T07:35:05;100883.22;;;15.43;75.06
73628;BME280;61923;51.846;5.856;2022-12-24T07:37:30;100887.66;;;15.43;74.63
73628;BME280;61923;51.846;5.856;2022-12-24T07:39:56;100893.22;;;15.40;74.81
73628;BME280;61923;51.846;5.856;2022-12-24T07:42:21;100899.41;;;15.39;75.26
73628;BME280;61923;51.846;5.856;2022-12-24T07:44:46;100906.75;;;15.35;74.65
73628;BME280;61923;51.846;5.856;2022-12-24T07:47:11;100906.59;;;15.37;74.83
73628;BME280;61923;51.846;5.856;2022-12-24T07:49:37;100922.28;;;15.37;74.77
73628;BME280;61923;51.846;5.856;2022-12-24T07:52:02;100922.28;;;15.37;74.58
73628;BME280;61923;51.846;5.856;2022-12-24T07:54:28;100928.81;;;15.32;74.88
73628;BME280;61923;51.846;5.856;2022-12-24T07:56:53;100931.44;;;15.32;74.61
73628;BME280;61923;51.846;5.856;2022-12-24T07:59:19;100940.09;;;15.33;74.53
73628;BME280;61923;51.846;5.856;2022-12-24T08:01:44;100946.97;;;15.34;74.78
73628;BME280;61923;51.846;5.856;2022-12-24T08:04:09;100934.66;;;15.26;74.44
73628;BME280;61923;51.846;5.856;2022-12-24T08:06:34;100952.69;;;15.38;73.68
73628;BME280;61923;51.846;5.856;2022-12-24T08:09:00;100952.69;;;15.38;73.76
73628;BME280;61923;51.846;5.856;2022-12-24T08:11:25;100961.72;;;15.43;73.27
73628;BME280;61923;51.846;5.856;2022-12-24T08:13:51;100961.94;;;15.50;73.03
73628;BME280;61923;51.846;5.856;2022-12-24T08:16:16;100972.91;;;15.53;72.77
73628;BME280;61923;51.846;5.856;2022-12-24T08:18:41;100980.31;;;15.58;72.81
73628;BME280;61923;51.846;5.856;2022-12-24T08:21:07;100978.34;;;15.60;73.20
73628;BME280;61923;51.846;5.856;2022-12-24T08:23:32;100990.78;;;15.58;73.07
73628;BME280;61923;51.846;5.856;2022-12-24T08:25:58;100987.78;;;15.53;73.18
73628;BME280;61923;51.846;5.856;2022-12-24T08:28:23;100987.28;;;15.49;73.40
73628;BME280;61923;51.846;5.856;2022-12-24T08:30:48;100990.06;;;15.48;73.81
73628;BME280;61923;51.846;5.856;2022-12-24T08:33:14;100993.66;;;15.47;73.59
73628;BME280;61923;51.846;5.856;2022-12-24T08:35:39;100989.22;;;15.47;73.56
73628;BME280;61923;51.846;5.856;2022-12-24T08:38:04;100997.25;;;15.46;73.73
73628;BME280;61923;51.846;5.856;2022-12-24T08:40:30;100999.22;;;15.44;73.63
73628;BME280;61923;51.846;5.856;2022-12-24T08:42:55;101006.41;;;15.42;73.85
73628;BME280;61923;51.846;5.856;2022-12-24T08:45:20;100994.94;;;15.43;73.71
73628;BME280;61923;51.846;5.856;2022-12-24T08:47:46;100995.59;;;15.45;73.68
73628;BME280;61923;51.846;5.856;2022-12-24T08:50:11;101013.44;;;15.49;73.46
73628;BME280;61923;51.846;5.856;2022-12-24T08:52:37;101013.97;;;15.53;73.30
73628;BME280;61923;51.846;5.856;2022-12-24T08:55:02;101016.28;;;15.56;73.12
73628;BME280;61923;51.846;5.856;2022-12-24T08:57:28;101010.38;;;15.54;73.32
73628;BME280;61923;51.846;5.856;2022-12-24T08:59:53;101017.78;;;15.59;73.01
73628;BME280;61923;51.846;5.856;2022-12-24T09:02:19;101016.53;;;15.71;72.57
73628;BME280;61923;51.846;5.856;2022-12-24T09:04:44;101022.47;;;15.73;72.49
73628;BME280;61923;51.846;5.856;2022-12-24T09:07:09;101029.06;;;15.85;72.11
73628;BME280;61923;51.846;5.856;2022-12-24T09:09:35;101029.16;;;16.02;71.55
73628;BME280;61923;51.846;5.856;2022-12-24T09:12:09;101032.63;;;16.10;71.43
73628;BME280;61923;51.846;5.856;2022-12-24T09:14:35;101029.72;;;16.22;70.84
73628;BME280;61923;51.846;5.856;2022-12-24T09:17:00;101032.38;;;16.30;70.63
73628;BME280;61923;51.846;5.856;2022-12-24T09:19:26;101027.78;;;16.32;70.44
73628;BME280;61923;51.846;5.856;2022-12-24T09:21:51;101032.69;;;16.35;70.17
73628;BME280;61923;51.846;5.856;2022-12-24T09:24:16;101039.75;;;16.35;70.34
73628;BME280;61923;51.846;5.856;2022-12-24T09:26:42;101044.16;;;16.34;70.13
73628;BME280;61923;51.846;5.856;2022-12-24T09:29:08;101042.19;;;16.28;70.76
73628;BME280;61923;51.846;5.856;2022-12-24T09:31:34;101050.66;;;16.13;70.81
73628;BME280;61923;51.846;5.856;2022-12-24T09:33:59;101061.06;;;16.05;71.54
73628;BME280;61923;51.846;5.856;2022-12-24T09:36:24;101057.88;;;16.20;70.79
73628;BME280;61923;51.846;5.856;2022-12-24T09:38:49;101054.69;;;16.00;71.25
73628;BME280;61923;51.846;5.856;2022-12-24T09:41:23;101073.09;;;15.82;72.20
73628;BME280;61923;51.846;5.856;2022-12-24T09:43:54;101083.03;;;15.78;72.59
73628;BME280;61923;51.846;5.856;2022-12-24T09:46:22;101083.19;;;15.77;72.51
73628;BME280;61923;51.846;5.856;2022-12-24T09:48:53;101083.91;;;15.87;72.08
73628;BME280;61923;51.846;5.856;2022-12-24T09:51:27;101097.09;;;16.03;71.63
73628;BME280;61923;51.846;5.856;2022-12-24T09:53:54;101090.22;;;16.02;71.51
73628;BME280;61923;51.846;5.856;2022-12-24T09:56:22;101048.50;;;15.75;71.26
73628;BME280;61923;51.846;5.856;2022-12-24T09:58:51;101099.19;;;16.34;70.69
73628;BME280;61923;51.846;5.856;2022-12-24T10:01:18;101099.88;;;16.44;70.22
73628;BME280;61923;51.846;5.856;2022-12-24T10:03:44;101099.88;;;16.44;70.18
73628;BME280;61923;51.846;5.856;2022-12-24T10:06:15;101104.78;;;16.39;70.40
73628;BME280;61923;51.846;5.856;2022-12-24T10:08:45;101106.19;;;16.25;70.68
73628;BME280;61923;51.846;5.856;2022-12-24T10:11:16;101118.91;;;16.12;71.43
73628;BME280;61923;51.846;5.856;2022-12-24T10:13:53;101117.88;;;16.05;71.59
73628;BME280;61923;51.846;5.856;2022-12-24T10:18:51;101120.97;;;16.00;71.85
73628;BME280;61923;51.846;5.856;2022-12-24T10:21:24;101122.56;;;15.93;72.17
73628;BME280;61923;51.846;5.856;2022-12-24T10:26:30;101118.84;;;15.96;72.18
73628;BME280;61923;51.846;5.856;2022-12-24T10:29:04;101107.19;;;15.90;72.37
73628;BME280;61923;51.846;5.856;2022-12-24T10:31:32;101118.31;;;15.92;72.38
73628;BME280;61923;51.846;5.856;2022-12-24T10:34:04;101121.09;;;15.90;72.29
73628;BME280;61923;51.846;5.856;2022-12-24T10:36:31;101117.81;;;15.88;72.63
73628;BME280;61923;51.846;5.856;2022-12-24T10:38:56;101127.56;;;16.04;71.95
73628;BME280;61923;51.846;5.856;2022-12-24T10:41:22;101111.22;;;16.10;71.70
73628;BME280;61923;51.846;5.856;2022-12-24T10:43:49;101110.91;;;16.13;71.53
73628;BME280;61923;51.846;5.856;2022-12-24T10:46:16;101101.88;;;16.08;71.81
73628;BME280;61923;51.846;5.856;2022-12-24T10:48:53;101111.69;;;16.06;72.07
73628;BME280;61923;51.846;5.856;2022-12-24T10:51:24;101106.13;;;16.09;71.77
73628;BME280;61923;51.846;5.856;2022-12-24T10:53:59;101101.34;;;16.04;71.89
73628;BME280;61923;51.846;5.856;2022-12-24T10:56:25;101107.66;;;15.93;72.20
73628;BME280;61923;51.846;5.856;2022-12-24T10:58:51;101111.09;;;15.86;72.85
73628;BME280;61923;51.846;5.856;2022-12-24T11:01:17;101122.00;;;15.81;72.92
73628;BME280;61923;51.846;5.856;2022-12-24T11:03:43;101119.38;;;15.81;73.03
73628;BME280;61923;51.846;5.856;2022-12-24T11:06:12;101131.97;;;15.78;73.07
73628;BME280;61923;51.846;5.856;2022-12-24T11:08:41;101126.44;;;15.81;72.99
73628;BME280;61923;51.846;5.856;2022-12-24T11:11:14;101130.84;;;15.80;72.95
73628;BME280;61923;51.846;5.856;2022-12-24T11:18:50;101127.63;;;15.86;72.92
73628;BME280;61923;51.846;5.856;2022-12-24T11:21:30;101134.69;;;15.94;72.26
73628;BME280;61923;51.846;5.856;2022-12-24T11:26:27;101135.66;;;15.93;72.24
73628;BME280;61923;51.846;5.856;2022-12-24T11:31:30;101134.69;;;15.94;72.70
73628;BME280;61923;51.846;5.856;2022-12-24T11:33:59;101132.59;;;15.98;72.14
73628;BME280;61923;51.846;5.856;2022-12-24T11:36:25;101144.34;;;15.93;72.55
73628;BME280;61923;51.846;5.856;2022-12-24T11:38:52;101139.19;;;16.02;72.30
73628;BME280;61923;51.846;5.856;2022-12-24T11:41:18;101134.28;;;16.07;71.93
73628;BME280;61923;51.846;5.856;2022-12-24T11:43:45;101144.09;;;16.05;72.09
73628;BME280;61923;51.846;5.856;2022-12-24T11:46:12;101142.09;;;15.99;72.09
73628;BME280;61923;51.846;5.856;2022-12-24T11:48:37;101136.19;;;15.97;72.55
73628;BME280;61923;51.846;5.856;2022-12-24T11:51:04;101137.19;;;15.96;72.27
73628;BME280;61923;51.846;5.856;2022-12-24T11:56:05;101148.63;;;15.95;72.79
73628;BME280;61923;51.846;5.856;2022-12-24T12:01:17;101150.72;;;15.91;72.57
73628;BME280;61923;51.846;5.856;2022-12-24T12:03:49;101150.72;;;15.91;72.69
73628;BME280;61923;51.846;5.856;2022-12-24T12:08:40;101139.56;;;15.89;72.58
73628;BME280;61923;51.846;5.856;2022-12-24T12:11:10;101144.84;;;15.97;72.28
73628;BME280;61923;51.846;5.856;2022-12-24T12:13:37;101150.28;;;15.96;72.37
73628;BME280;61923;51.846;5.856;2022-12-24T12:18:40;101144.50;;;15.92;72.24
73628;BME280;61923;51.846;5.856;2022-12-24T12:21:13;101149.91;;;15.90;72.27
73628;BME280;61923;51.846;5.856;2022-12-24T12:23:46;101160.22;;;15.92;72.63
73628;BME280;61923;51.846;5.856;2022-12-24T12:26:18;101156.47;;;15.95;72.00
73628;BME280;61923;51.846;5.856;2022-12-24T12:31:12;101158.78;;;15.98;71.74
73628;BME280;61923;51.846;5.856;2022-12-24T12:34:28;101164.03;;;15.98;71.83
73628;BME280;61923;51.846;5.856;2022-12-24T12:36:26;101168.13;;;16.00;71.61
73628;BME280;61923;51.846;5.856;2022-12-24T12:38:54;101174.72;;;16.04;71.47
73628;BME280;61923;51.846;5.856;2022-12-24T12:51:48;101181.28;;;16.08;71.10
73628;BME280;61923;51.846;5.856;2022-12-24T12:55:03;101187.81;;;16.04;71.32
73628;BME280;61923;51.846;5.856;2022-12-24T12:57:04;101185.84;;;16.06;71.23
73628;BME280;61923;51.846;5.856;2022-12-24T13:09:40;101193.09;;;16.12;70.84
73628;BME280;61923;51.846;5.856;2022-12-24T13:12:31;101204.81;;;16.26;70.30
73628;BME280;61923;51.846;5.856;2022-12-24T13:17:38;101213.16;;;16.22;70.28
73628;BME280;61923;51.846;5.856;2022-12-24T13:20:16;101219.66;;;16.18;70.53
73628;BME280;61923;51.846;5.856;2022-12-24T13:25:45;101216.69;;;16.12;70.77
73628;BME280;61923;51.846;5.856;2022-12-24T13:30:47;101220.88;;;16.05;71.20
73628;BME280;61923;51.846;5.856;2022-12-24T13:33:13;101219.38;;;16.03;71.25
73628;BME280;61923;51.846;5.856;2022-12-24T13:36:02;101227.56;;;16.00;71.19
73628;BME280;61923;51.846;5.856;2022-12-24T13:40:53;101227.00;;;15.88;71.66
73628;BME280;61923;51.846;5.856;2022-12-24T13:43:19;101239.69;;;15.83;71.88
73628;BME280;61923;51.846;5.856;2022-12-24T13:45:45;101229.53;;;15.80;72.02
73628;BME280;61923;51.846;5.856;2022-12-24T13:48:15;101230.50;;;15.79;72.10
73628;BME280;61923;51.846;5.856;2022-12-24T13:50:55;101243.59;;;15.79;71.94
73628;BME280;61923;51.846;5.856;2022-12-24T13:53:43;101240.69;;;15.82;71.87
73628;BME280;61923;51.846;5.856;2022-12-24T13:56:08;101251.84;;;15.84;71.90
73628;BME280;61923;51.846;5.856;2022-12-24T13:58:34;101249.34;;;15.82;71.70
73628;BME280;61923;51.846;5.856;2022-12-24T14:03:29;101254.06;;;15.79;71.79
73628;BME280;61923;51.846;5.856;2022-12-24T14:05:57;101258.63;;;15.77;71.90
73628;BME280;61923;51.846;5.856;2022-12-24T14:10:57;101267.63;;;15.74;71.93
73628;BME280;61923;51.846;5.856;2022-12-24T14:14:10;101274.63;;;15.73;71.95
73628;BME280;61923;51.846;5.856;2022-12-24T14:18:45;101278.25;;;15.72;71.85
73628;BME280;61923;51.846;5.856;2022-12-24T14:21:16;101284.41;;;15.71;71.93
73628;BME280;61923;51.846;5.856;2022-12-24T14:23:43;101289.63;;;15.71;71.85
73628;BME280;61923;51.846;5.856;2022-12-24T14:26:15;101287.88;;;15.72;72.00